Tombstone, AZ

9:58 AM MST on October 24, 2014 (GMT -0700)
Nogales International | Change Station
CLOSE
Current Station
Airport
Location: Nogales,
Elevation: 3944 ft
Nearby Weather Stations

Elev 3944 ft 31.42 °N, 110.85 °W | Updated 4 minutes ago

Clear
Clear
78 °F
Feels Like 78 °F
N
0
Wind Variable Wind from North

Today
High -- | Low -- °F
--% Chance of Precip.
Yesterday
High -- | Low -- °F
Precip. -- in
6:30 AM 5:38 PM
New Moon, 1% visible
Pressure 30.06 in
Visibility 10.0 miles
Clouds Clear
Dew Point 47 °F
Humidity 33%
Rainfall 0.00 in
Snow Depth Not available.
UV 5 out of 12
Pollen 5.80 out of 12
Air Quality Not available.
Flu Activity No Activity
METAR KOLS 241654Z AUTO 00000KT 10SM CLR 26/08 A3022 RMK AO2 SLP177 T02560083

More Conditions Fewer Conditions

Pressure 30.06 in
Visibility 10.0 miles
Clouds Clear
Dew Point 47 °F
Humidity 33%
Rainfall 0.00 in
Snow Depth Not available.
UV 5 out of 12
Pollen 5.80 out of 12
Air Quality Not available.
Flu Activity No Activity
METAR KOLS 241654Z AUTO 00000KT 10SM CLR 26/08 A3022 RMK AO2 SLP177 T02560083

More Conditions Fewer Conditions

10-Day Weather Forecast

Almanac

Astronomy

Oct. 24, 2014 Rise Set
Actual Time 6:30 AM MST 5:38 PM MST
Civil Twilight 6:05 AM MST 6:03 PM MST
Nautical Twilight 5:36 AM MST 6:31 PM MST
Astronomical Twilight 5:08 AM MST 6:59 PM MST
Moon 7:10 AM MST 6:23 PM MST
Length of Visible Light 11h 57m
Length of Day
11h 08m
Tomorrow will be 1m 47s shorter.
New Moon, 1% of the Moon is Illuminated
Today
New Moon
Oct 30
First Quarter
Nov 6
Full
Nov 14
Last Quarter
Nov 22
New

Today's Extremes

State Highs State Lows

Community

WunderPhotos

Upload Photos

1,764,609 photos uploaded!

WunderBlogs® & News

By Dr. Jeff Masters
Director of Meteorology, Weather Underground
By Kari Strenfel
Meteorologist, Weather Underground
By Christopher C. Burt
Weather Historian, Weather Underground
October 24, 2014
October 24, 2014
October 24, 2014

Nearby

Snow Depth

Station Depth Elevation
Wildcat 1 in 7850 ft
Beaver Head 0 in 7990 ft
Workman Creek 0 in 6900 ft
Maverick Fork 0 in 9200 ft
Promontory 0 in 7930 ft

Earthquake Activity

City Distance Mag. Time & Date
No recent earthquake activity has been reported nearby.
Minimum magnitude displayed is 2.5.

Coastal Water Temperatures

Place Temperature
No Stations Reporting

Nearby Weather Stations